Time;durP1;ratioP1;P1;durP2;ratioP2;P2;SDS_P1;SDS_P2;PMS_P1;PMS_P2;Temp;Humidity;BMP_temperature;BMP_pressure;BME280_temperature;BME280_humidity;BME280_pressure;Samples;Min_cycle;Max_cycle;Signal;HPM_P1;HPM_P2
2021/03/22 00:00:00;;;;;;;19.43;4.70;;;3.70;99.90;;;;;;4938694;29;20283;-80
2021/03/22 00:02:45;;;;;;;30.03;5.27;;;3.70;99.90;;;;;;4936467;29;20218;-80
2021/03/22 00:05:30;;;;;;;25.53;5.20;;;3.70;99.90;;;;;;4935905;29;20434;-80
2021/03/22 00:08:17;;;;;;;20.93;5.17;;;3.60;99.90;;;;;;4939697;29;20264;-79
2021/03/22 00:11:03;;;;;;;23.97;5.10;;;3.60;99.90;;;;;;4940691;29;20332;-80
2021/03/22 00:13:48;;;;;;;31.53;6.63;;;3.60;99.90;;;;;;4942139;29;20215;-79
2021/03/22 00:16:33;;;;;;;31.17;6.87;;;3.60;99.90;;;;;;4937549;29;20232;-78
2021/03/22 00:19:18;;;;;;;35.77;6.77;;;3.50;99.90;;;;;;4935789;29;20760;-80
2021/03/22 00:22:03;;;;;;;25.20;6.63;;;3.50;99.90;;;;;;4925542;29;20218;-77
2021/03/22 00:24:49;;;;;;;26.10;6.50;;;3.50;99.90;;;;;;4936431;29;20324;-77
2021/03/22 00:27:34;;;;;;;28.30;6.63;;;3.50;99.90;;;;;;4936489;29;20210;-77
2021/03/22 00:30:22;;;;;;;23.87;6.73;;;3.50;99.90;;;;;;4937350;29;20231;-78
2021/03/22 00:33:09;;;;;;;29.57;6.47;;;3.50;99.90;;;;;;4936757;29;20296;-78
2021/03/22 00:35:54;;;;;;;27.87;5.93;;;3.50;99.90;;;;;;4926855;29;20235;-77
2021/03/22 00:38:38;;;;;;;29.17;5.90;;;3.50;99.90;;;;;;4934542;29;20210;-77
2021/03/22 00:41:24;;;;;;;37.30;6.73;;;3.50;99.90;;;;;;4936472;29;20261;-77
2021/03/22 00:44:09;;;;;;;26.07;5.83;;;3.50;99.90;;;;;;4932104;29;20235;-77
2021/03/22 00:46:54;;;;;;;23.67;6.10;;;3.50;99.90;;;;;;4933941;29;20256;-77
2021/03/22 00:49:38;;;;;;;18.10;5.63;;;3.50;99.90;;;;;;4936053;29;20538;-77
2021/03/22 00:52:23;;;;;;;29.53;6.03;;;3.50;99.90;;;;;;4931841;29;20219;-77
2021/03/22 00:55:09;;;;;;;23.30;6.20;;;3.50;99.90;;;;;;4934768;29;20293;-77
2021/03/22 00:57:55;;;;;;;21.47;5.30;;;3.50;99.90;;;;;;4933131;29;20275;-77
2021/03/22 01:00:42;;;;;;;23.77;5.53;;;3.60;99.90;;;;;;4932754;29;20280;-77
2021/03/22 01:03:29;;;;;;;25.30;4.80;;;3.50;99.90;;;;;;4932031;29;20223;-77
2021/03/22 01:06:14;;;;;;;29.83;6.07;;;3.50;99.90;;;;;;4930785;29;20300;-78
2021/03/22 01:08:58;;;;;;;22.43;5.30;;;3.50;99.90;;;;;;4931367;29;20262;-77
2021/03/22 01:11:43;;;;;;;18.07;5.03;;;3.40;99.90;;;;;;4926354;29;20202;-78
2021/03/22 01:14:29;;;;;;;25.70;5.23;;;3.40;99.90;;;;;;4931485;29;20572;-77
2021/03/22 01:17:14;;;;;;;23.60;5.83;;;3.40;99.90;;;;;;4928386;29;20207;-77
2021/03/22 01:19:58;;;;;;;23.40;5.27;;;3.40;99.90;;;;;;4925965;29;20251;-77
2021/03/22 01:22:43;;;;;;;23.97;5.90;;;3.30;99.90;;;;;;4927993;29;20215;-77
2021/03/22 01:25:28;;;;;;;21.27;5.20;;;3.30;99.90;;;;;;4927928;29;20203;-78
2021/03/22 01:28:14;;;;;;;19.57;5.33;;;3.20;99.90;;;;;;4927453;29;20210;-77
2021/03/22 01:31:00;;;;;;;18.37;5.10;;;3.20;99.90;;;;;;4936013;29;20814;-78
2021/03/22 01:33:49;;;;;;;23.20;5.30;;;3.20;99.90;;;;;;4934670;29;20656;-77
2021/03/22 01:36:37;;;;;;;25.23;6.70;;;3.20;99.90;;;;;;4935548;29;20206;-77
2021/03/22 01:39:25;;;;;;;32.77;7.80;;;3.20;99.90;;;;;;4925202;29;20255;-77
2021/03/22 01:42:24;;;;;;;22.93;6.20;;;3.10;99.90;;;;;;4924698;29;20699;-77
2021/03/22 01:45:10;;;;;;;24.93;6.33;;;3.10;99.90;;;;;;4935377;29;20255;-77
2021/03/22 01:47:56;;;;;;;23.00;5.90;;;3.10;99.90;;;;;;4934705;29;20262;-77
2021/03/22 01:50:41;;;;;;;25.87;6.03;;;3.00;99.90;;;;;;4933682;29;20579;-77
2021/03/22 01:53:26;;;;;;;21.20;5.93;;;3.00;99.90;;;;;;4929413;29;20211;-77
2021/03/22 01:56:13;;;;;;;26.73;5.70;;;3.00;99.90;;;;;;4931636;29;20707;-77
2021/03/22 01:58:58;;;;;;;26.87;5.63;;;3.00;99.90;;;;;;4932541;29;20633;-77
2021/03/22 02:01:48;;;;;;;22.33;5.50;;;3.00;99.90;;;;;;4935065;29;20206;-77
2021/03/22 02:04:34;;;;;;;22.90;5.80;;;2.90;99.90;;;;;;4929031;29;20247;-78
2021/03/22 02:07:19;;;;;;;25.87;5.80;;;2.90;99.90;;;;;;4933690;29;20291;-77
2021/03/22 02:10:06;;;;;;;28.20;5.67;;;2.90;99.90;;;;;;4935231;29;20270;-78
2021/03/22 02:12:51;;;;;;;27.33;6.37;;;2.90;99.90;;;;;;4927853;29;20265;-78
2021/03/22 02:15:38;;;;;;;20.83;5.50;;;2.80;99.90;;;;;;4934420;29;20211;-78
2021/03/22 02:18:29;;;;;;;26.17;6.77;;;2.80;99.90;;;;;;4931306;29;20210;-78
2021/03/22 02:21:45;;;;;;;24.90;6.03;;;2.80;99.90;;;;;;4933973;29;20423;-77
2021/03/22 02:24:48;;;;;;;32.20;6.03;;;2.80;99.90;;;;;;4930688;29;20290;-77
2021/03/22 02:28:03;;;;;;;28.13;7.00;;;2.70;99.90;;;;;;4921277;29;20260;-77
2021/03/22 02:31:16;;;;;;;28.57;7.83;;;2.70;99.90;;;;;;4935096;29;20259;-77
2021/03/22 02:34:16;;;;;;;21.53;6.37;;;2.70;99.90;;;;;;4909777;29;20230;-77
2021/03/22 02:37:13;;;;;;;29.57;7.00;;;2.70;99.90;;;;;;4936515;29;20251;-77
2021/03/22 02:40:08;;;;;;;29.37;6.63;;;2.60;99.90;;;;;;4937361;29;20592;-77
2021/03/22 02:42:54;;;;;;;27.80;6.43;;;2.60;99.90;;;;;;4933094;29;20211;-77
2021/03/22 02:45:42;;;;;;;23.53;6.17;;;2.60;99.90;;;;;;4936369;29;20207;-77
2021/03/22 02:48:30;;;;;;;24.67;7.03;;;2.70;99.90;;;;;;4935521;29;20270;-77
2021/03/22 02:51:24;;;;;;;19.70;6.00;;;2.60;99.90;;;;;;4936759;29;20234;-77
2021/03/22 02:54:16;;;;;;;26.07;6.63;;;2.60;99.90;;;;;;4932629;29;20251;-77
2021/03/22 02:57:07;;;;;;;27.57;6.80;;;2.60;99.90;;;;;;4940488;29;20210;-77
2021/03/22 02:59:57;;;;;;;28.80;7.27;;;2.60;99.90;;;;;;4958089;29;20255;-77
2021/03/22 03:02:44;;;;;;;28.67;7.77;;;2.50;99.90;;;;;;4949628;29;20227;-78
2021/03/22 03:05:31;;;;;;;19.33;7.07;;;2.60;99.90;;;;;;4952071;29;20194;-78
2021/03/22 03:08:20;;;;;;;26.67;7.57;;;2.60;99.90;;;;;;4931229;29;20235;-78
2021/03/22 03:11:05;;;;;;;35.20;7.50;;;2.60;99.90;;;;;;4933943;29;20299;-78
2021/03/22 03:13:50;;;;;;;39.13;8.53;;;2.70;99.90;;;;;;4927929;29;20326;-78
2021/03/22 03:16:35;;;;;;;35.43;9.17;;;2.80;99.90;;;;;;4938204;29;20239;-77
2021/03/22 03:19:20;;;;;;;38.37;10.13;;;2.80;99.90;;;;;;4922031;29;20266;-77
2021/03/22 03:22:06;;;;;;;32.00;9.40;;;2.90;99.90;;;;;;4936478;29;20206;-78
2021/03/22 03:24:52;;;;;;;45.70;10.10;;;3.10;99.90;;;;;;4924763;29;20298;-77
2021/03/22 03:27:37;;;;;;;47.73;9.60;;;3.10;99.90;;;;;;4928591;29;20746;-78
2021/03/22 03:30:25;;;;;;;53.07;9.27;;;3.20;99.90;;;;;;4930703;29;20247;-77
2021/03/22 03:33:13;;;;;;;46.00;10.47;;;3.30;99.90;;;;;;4932171;29;20211;-77
2021/03/22 03:35:58;;;;;;;40.37;9.37;;;3.30;99.90;;;;;;4923883;29;20272;-77
2021/03/22 03:38:42;;;;;;;30.43;9.20;;;3.40;99.90;;;;;;4935077;29;20703;-77
2021/03/22 03:41:28;;;;;;;39.57;9.47;;;3.50;99.90;;;;;;4934188;29;20283;-78
2021/03/22 03:44:13;;;;;;;38.13;10.83;;;3.50;99.90;;;;;;4936556;29;20263;-77
2021/03/22 03:46:58;;;;;;;37.47;9.87;;;3.60;99.90;;;;;;4936784;29;20263;-77
2021/03/22 03:49:43;;;;;;;40.57;10.77;;;3.70;99.90;;;;;;4928147;29;20231;-77
2021/03/22 03:52:28;;;;;;;45.60;10.37;;;3.80;99.90;;;;;;4935374;29;20218;-77
2021/03/22 03:55:14;;;;;;;45.07;10.17;;;3.80;99.90;;;;;;4933883;29;20235;-77
2021/03/22 03:58:01;;;;;;;41.37;10.27;;;3.90;99.90;;;;;;4935232;29;20266;-77
2021/03/22 04:00:47;;;;;;;45.43;9.73;;;4.00;99.90;;;;;;4935208;29;20278;-77
2021/03/22 04:03:35;;;;;;;41.70;9.10;;;4.00;99.90;;;;;;4920168;29;20207;-77
2021/03/22 04:06:23;;;;;;;37.23;9.87;;;4.10;99.90;;;;;;4934118;29;20218;-77
2021/03/22 04:09:10;;;;;;;37.83;10.73;;;4.20;99.90;;;;;;4936701;29;20222;-77
2021/03/22 04:11:55;;;;;;;27.67;10.13;;;4.20;99.90;;;;;;4932636;29;20214;-77
2021/03/22 04:14:41;;;;;;;46.97;11.13;;;4.20;99.90;;;;;;4929788;29;20219;-77
2021/03/22 04:17:26;;;;;;;36.13;10.10;;;4.30;99.90;;;;;;4930305;29;20222;-77
2021/03/22 04:20:12;;;;;;;38.43;10.40;;;4.40;99.90;;;;;;4929997;29;20235;-77
2021/03/22 04:22:57;;;;;;;39.13;11.00;;;4.40;99.90;;;;;;4925039;29;20295;-78
2021/03/22 04:25:42;;;;;;;30.40;9.93;;;4.50;99.90;;;;;;4929128;29;20764;-78
2021/03/22 04:28:28;;;;;;;34.70;9.23;;;4.50;99.90;;;;;;4931804;29;20949;-77
2021/03/22 04:31:15;;;;;;;37.40;9.37;;;4.50;99.90;;;;;;4925342;29;20283;-77
2021/03/22 04:34:01;;;;;;;38.23;10.67;;;4.60;99.90;;;;;;4931621;29;20215;-77
2021/03/22 04:36:45;;;;;;;31.83;10.13;;;4.60;99.90;;;;;;4919465;29;20220;-78
2021/03/22 04:39:30;;;;;;;34.60;9.53;;;4.60;99.90;;;;;;4923642;29;20278;-77
2021/03/22 04:42:15;;;;;;;35.67;10.40;;;4.70;99.90;;;;;;4924112;29;20212;-77
2021/03/22 04:45:00;;;;;;;34.30;9.57;;;4.70;99.90;;;;;;4921067;29;20355;-77
2021/03/22 04:47:46;;;;;;;32.07;10.70;;;4.70;99.90;;;;;;4927654;29;20593;-78
2021/03/22 04:50:31;;;;;;;45.23;12.57;;;4.70;99.90;;;;;;4941710;29;20230;-77
2021/03/22 04:53:16;;;;;;;31.27;9.93;;;4.80;99.90;;;;;;4948937;29;20691;-78
2021/03/22 04:56:01;;;;;;;27.43;8.23;;;4.80;99.90;;;;;;4940829;29;20805;-78
2021/03/22 04:58:46;;;;;;;42.10;10.57;;;4.80;99.90;;;;;;4937560;29;20214;-78
2021/03/22 05:01:30;;;;;;;35.50;10.37;;;4.90;99.90;;;;;;4918649;29;20721;-78
2021/03/22 05:04:16;;;;;;;34.93;10.13;;;4.90;99.90;;;;;;4916470;29;20643;-77
2021/03/22 05:07:01;;;;;;;34.57;10.23;;;4.90;99.90;;;;;;4925285;29;20210;-77
2021/03/22 05:09:46;;;;;;;40.77;9.97;;;4.90;99.90;;;;;;4933720;29;20262;-78
2021/03/22 05:12:31;;;;;;;39.03;9.63;;;4.90;99.90;;;;;;4937438;29;20214;-78
2021/03/22 05:15:17;;;;;;;35.33;9.40;;;5.00;99.90;;;;;;4932828;29;20712;-78
2021/03/22 05:18:02;;;;;;;34.93;9.17;;;5.00;99.90;;;;;;4938810;29;20240;-78
2021/03/22 05:20:52;;;;;;;29.47;9.53;;;5.00;99.90;;;;;;4940415;29;20245;-78
2021/03/22 05:23:40;;;;;;;33.27;9.23;;;5.10;99.90;;;;;;4936335;29;20548;-78
2021/03/22 05:26:24;;;;;;;32.73;9.63;;;5.10;99.90;;;;;;4932396;29;20267;-78
2021/03/22 05:29:09;;;;;;;41.37;10.27;;;5.10;99.90;;;;;;4923915;29;20271;-77
2021/03/22 05:31:55;;;;;;;30.17;8.77;;;5.20;99.90;;;;;;4934741;29;20625;-77
2021/03/22 05:34:40;;;;;;;28.90;8.00;;;5.20;99.90;;;;;;4935283;29;20240;-78
2021/03/22 05:37:28;;;;;;;30.47;8.53;;;5.20;99.90;;;;;;4928489;29;20294;-78
2021/03/22 05:40:21;;;;;;;28.97;8.53;;;5.20;99.90;;;;;;4939179;29;20262;-78
2021/03/22 05:43:17;;;;;;;30.83;8.83;;;5.20;99.90;;;;;;4941702;29;20580;-78
2021/03/22 05:46:14;;;;;;;24.33;7.37;;;5.20;99.90;;;;;;4935308;29;20210;-78
2021/03/22 05:49:15;;;;;;;30.43;7.13;;;5.20;99.90;;;;;;4939552;29;20236;-78
2021/03/22 05:52:25;;;;;;;25.63;6.73;;;5.30;99.90;;;;;;4942518;29;20572;-78
2021/03/22 05:55:41;;;;;;;21.50;6.30;;;5.30;99.90;;;;;;4929196;29;20212;-78
2021/03/22 05:58:48;;;;;;;20.40;6.07;;;5.30;99.90;;;;;;4933714;29;20239;-78
2021/03/22 06:01:41;;;;;;;25.63;6.07;;;5.30;99.90;;;;;;4932610;29;20230;-78
2021/03/22 06:04:31;;;;;;;21.73;6.07;;;5.30;99.90;;;;;;4930102;29;20206;-78
2021/03/22 06:07:21;;;;;;;25.03;6.17;;;5.30;99.90;;;;;;4926794;29;20218;-77
2021/03/22 06:10:14;;;;;;;17.53;6.33;;;5.40;99.90;;;;;;4932545;29;20276;-77
2021/03/22 06:13:02;;;;;;;18.10;5.03;;;5.40;99.90;;;;;;4927542;29;20210;-77
2021/03/22 06:15:53;;;;;;;19.03;5.43;;;5.40;99.90;;;;;;4928754;29;20302;-78
2021/03/22 06:18:50;;;;;;;17.10;5.13;;;5.40;99.90;;;;;;4919166;29;20215;-77
2021/03/22 06:21:37;;;;;;;17.10;5.00;;;5.40;99.90;;;;;;4925858;29;20222;-78
2021/03/22 06:24:24;;;;;;;20.00;5.23;;;5.50;99.90;;;;;;4923073;29;20228;-78
2021/03/22 06:27:10;;;;;;;15.27;5.13;;;5.50;99.90;;;;;;4927961;29;20259;-78
2021/03/22 06:29:56;;;;;;;17.57;4.10;;;5.50;99.90;;;;;;4920748;29;20593;-77
2021/03/22 06:32:45;;;;;;;14.73;4.20;;;5.50;99.90;;;;;;4926593;29;20295;-77
2021/03/22 06:35:34;;;;;;;24.90;4.90;;;5.60;99.90;;;;;;4931055;29;20275;-78
2021/03/22 06:38:19;;;;;;;13.80;4.43;;;5.60;99.90;;;;;;4926178;29;20210;-77
2021/03/22 06:41:28;;;;;;;13.07;4.00;;;5.60;99.90;;;;;;4925430;29;20688;-77
2021/03/22 06:44:18;;;;;;;12.57;3.63;;;5.60;99.90;;;;;;4919992;29;20222;-77
2021/03/22 06:47:17;;;;;;;12.77;4.27;;;5.70;99.90;;;;;;4926792;29;20739;-77
2021/03/22 06:50:23;;;;;;;13.90;3.93;;;5.70;99.90;;;;;;4924717;29;20295;-77
2021/03/22 06:53:09;;;;;;;13.73;4.30;;;5.70;99.90;;;;;;4918938;29;20731;-77
2021/03/22 06:55:53;;;;;;;11.03;3.57;;;5.70;99.90;;;;;;4923298;29;20267;-77
2021/03/22 06:58:39;;;;;;;18.17;4.63;;;5.80;99.90;;;;;;4927153;29;20207;-77
2021/03/22 07:01:28;;;;;;;17.07;4.33;;;5.80;99.90;;;;;;4921333;29;20223;-77
2021/03/22 07:04:29;;;;;;;13.67;5.00;;;5.90;99.90;;;;;;4926972;29;20258;-77
2021/03/22 07:07:17;;;;;;;15.07;4.50;;;5.90;99.90;;;;;;4929513;29;20211;-77
2021/03/22 07:10:17;;;;;;;14.40;4.20;;;5.90;99.90;;;;;;4920971;29;20247;-78
2021/03/22 07:13:24;;;;;;;10.93;3.50;;;6.00;99.90;;;;;;4930318;29;20702;-77
2021/03/22 07:16:18;;;;;;;12.37;4.13;;;6.00;99.90;;;;;;4923973;29;20210;-78
2021/03/22 07:19:18;;;;;;;12.27;4.23;;;6.00;99.90;;;;;;4927720;29;20719;-77
2021/03/22 07:22:17;;;;;;;12.93;4.07;;;6.10;99.90;;;;;;4934539;29;20250;-78
2021/03/22 07:25:06;;;;;;;15.63;4.43;;;6.10;99.90;;;;;;4927445;29;20311;-78
2021/03/22 07:27:52;;;;;;;16.20;4.37;;;6.10;99.90;;;;;;4933737;29;20214;-78
2021/03/22 07:30:42;;;;;;;13.10;4.17;;;6.10;99.90;;;;;;4928781;29;20648;-77
2021/03/22 07:33:41;;;;;;;14.33;3.90;;;6.20;99.90;;;;;;4943765;29;20598;-77
2021/03/22 07:36:39;;;;;;;13.17;4.10;;;6.20;99.90;;;;;;4927682;29;20280;-77
2021/03/22 07:39:45;;;;;;;15.60;3.70;;;6.30;99.90;;;;;;4918803;29;20228;-77
2021/03/22 07:42:44;;;;;;;10.90;3.90;;;6.40;99.90;;;;;;4926232;29;20227;-77
2021/03/22 07:45:42;;;;;;;9.90;3.03;;;6.40;99.90;;;;;;4929528;29;20716;-77
2021/03/22 07:48:53;;;;;;;10.33;2.80;;;6.40;99.90;;;;;;4925411;29;20291;-77
2021/03/22 07:52:01;;;;;;;11.40;3.30;;;6.50;99.90;;;;;;4922518;29;20316;-77
2021/03/22 07:55:10;;;;;;;12.67;2.77;;;6.50;99.90;;;;;;4933588;29;20242;-78
2021/03/22 07:57:59;;;;;;;7.03;2.10;;;6.50;99.90;;;;;;4935817;29;20255;-78
2021/03/22 08:00:56;;;;;;;8.10;2.37;;;6.50;99.90;;;;;;4932306;29;20271;-77
2021/03/22 08:04:00;;;;;;;9.80;2.87;;;6.50;99.90;;;;;;4934551;29;20227;-78
2021/03/22 08:06:57;;;;;;;5.90;2.30;;;6.60;99.90;;;;;;4930749;29;20210;-78
2021/03/22 08:09:50;;;;;;;9.73;2.30;;;6.60;99.90;;;;;;4933993;29;20227;-77
2021/03/22 08:12:43;;;;;;;7.60;2.60;;;6.60;99.90;;;;;;4931529;29;20211;-77
2021/03/22 08:15:38;;;;;;;8.67;2.60;;;6.70;99.90;;;;;;4928750;29;20207;-78
2021/03/22 08:18:28;;;;;;;7.70;2.73;;;6.70;99.90;;;;;;4931030;29;20227;-78
2021/03/22 08:21:22;;;;;;;7.03;2.73;;;6.80;99.90;;;;;;4926365;29;20262;-78
2021/03/22 08:24:16;;;;;;;12.80;3.47;;;6.80;99.90;;;;;;4928999;29;20195;-78
2021/03/22 08:27:10;;;;;;;8.97;2.83;;;6.90;99.90;;;;;;4936293;29;20309;-78
2021/03/22 08:30:04;;;;;;;7.30;2.70;;;7.00;99.90;;;;;;4924585;29;20255;-77
2021/03/22 08:32:56;;;;;;;7.03;2.33;;;7.00;99.90;;;;;;4929589;29;20214;-78
2021/03/22 08:35:48;;;;;;;6.70;3.47;;;7.10;99.90;;;;;;4934072;29;20248;-78
2021/03/22 08:38:43;;;;;;;6.37;2.20;;;7.10;99.90;;;;;;4932175;29;20230;-78
2021/03/22 08:41:32;;;;;;;4.80;1.80;;;7.20;99.90;;;;;;4933192;29;20230;-78
2021/03/22 08:44:23;;;;;;;5.60;1.97;;;7.30;99.90;;;;;;4935906;29;20223;-78
2021/03/22 08:47:27;;;;;;;3.43;1.87;;;7.40;99.90;;;;;;4935895;29;20673;-78
2021/03/22 08:50:14;;;;;;;5.57;2.20;;;7.30;99.90;;;;;;4939095;29;20307;-78
2021/03/22 08:53:03;;;;;;;6.33;1.90;;;7.50;99.90;;;;;;4942801;29;20271;-78
2021/03/22 08:55:53;;;;;;;5.30;1.80;;;7.60;99.90;;;;;;4955740;29;20274;-78
2021/03/22 08:58:45;;;;;;;4.47;1.53;;;7.70;99.90;;;;;;4953204;29;20215;-78
2021/03/22 09:01:34;;;;;;;8.23;1.67;;;7.70;99.90;;;;;;4930653;29;20236;-78
2021/03/22 09:04:30;;;;;;;4.10;2.30;;;7.80;99.90;;;;;;4933448;29;20239;-79
2021/03/22 09:07:32;;;;;;;5.07;1.90;;;7.90;99.90;;;;;;4941533;29;20588;-78
2021/03/22 09:10:29;;;;;;;7.00;2.40;;;8.00;99.90;;;;;;4935319;29;20273;-78
2021/03/22 09:13:31;;;;;;;8.17;2.30;;;8.10;99.90;;;;;;4936959;29;20577;-79
2021/03/22 09:16:39;;;;;;;7.00;2.23;;;8.20;99.90;;;;;;4932596;29;20813;-78
2021/03/22 09:19:41;;;;;;;5.80;2.40;;;8.40;99.90;;;;;;4941795;29;20272;-78
2021/03/22 09:22:49;;;;;;;5.53;2.50;;;8.50;99.90;;;;;;4939167;29;20795;-78
2021/03/22 09:25:56;;;;;;;9.00;3.67;;;8.60;99.90;;;;;;4924347;29;20207;-78
2021/03/22 09:28:58;;;;;;;9.13;3.33;;;8.80;99.90;;;;;;4931345;29;20231;-79
2021/03/22 09:31:47;;;;;;;12.90;4.43;;;9.10;99.90;;;;;;4948057;29;20612;-79
2021/03/22 09:34:37;;;;;;;9.10;3.47;;;9.40;99.90;;;;;;4936700;29;20218;-79
2021/03/22 09:37:50;;;;;;;6.60;2.77;;;9.90;99.90;;;;;;4926441;29;20207;-79
2021/03/22 09:40:54;;;;;;;8.63;3.13;;;10.50;99.90;;;;;;4920744;29;20234;-79
2021/03/22 09:43:41;;;;;;;5.17;2.80;;;11.10;99.90;;;;;;4935812;29;20215;-78
2021/03/22 09:46:37;;;;;;;8.00;2.60;;;11.50;99.90;;;;;;4938960;29;20186;-78
2021/03/22 09:49:27;;;;;;;8.67;2.77;;;11.70;99.90;;;;;;4957698;29;20219;-79
2021/03/22 09:52:22;;;;;;;7.60;2.77;;;11.90;99.90;;;;;;4955955;29;20272;-78
2021/03/22 09:55:46;;;;;;;8.07;2.87;;;12.00;99.90;;;;;;4957929;29;20202;-79
2021/03/22 09:58:37;;;;;;;6.17;2.83;;;12.00;99.90;;;;;;4922378;29;20219;-78
2021/03/22 10:01:39;;;;;;;7.20;3.00;;;11.90;99.90;;;;;;4933601;29;20228;-78
2021/03/22 10:04:34;;;;;;;4.97;2.33;;;11.80;99.90;;;;;;4939019;29;20338;-78
2021/03/22 10:07:27;;;;;;;5.67;2.50;;;11.70;99.90;;;;;;4943785;29;20217;-78
2021/03/22 10:10:23;;;;;;;5.47;2.20;;;11.60;99.90;;;;;;4941982;29;20226;-78
2021/03/22 10:13:17;;;;;;;3.37;1.93;;;11.50;99.90;;;;;;4933238;29;20222;-78
2021/03/22 10:16:11;;;;;;;4.03;2.17;;;11.40;99.90;;;;;;4930938;29;20736;-78
2021/03/22 10:18:59;;;;;;;4.73;1.93;;;11.30;99.90;;;;;;4933506;29;20355;-78
2021/03/22 10:21:48;;;;;;;3.93;2.00;;;11.30;99.90;;;;;;4934589;29;20642;-80
2021/03/22 10:24:42;;;;;;;4.83;2.20;;;11.30;99.90;;;;;;4932099;29;20263;-80
2021/03/22 10:27:31;;;;;;;4.27;2.10;;;11.20;99.90;;;;;;4928381;29;20259;-80
2021/03/22 10:30:19;;;;;;;4.80;2.17;;;11.20;99.90;;;;;;4919970;29;20227;-80
2021/03/22 10:33:11;;;;;;;5.23;1.90;;;11.20;99.90;;;;;;4939147;29;20207;-80
2021/03/22 10:35:59;;;;;;;2.57;2.30;;;11.30;99.90;;;;;;4929735;29;20211;-80
2021/03/22 10:38:51;;;;;;;5.97;2.43;;;11.30;99.90;;;;;;4944325;29;20702;-80
2021/03/22 10:41:39;;;;;;;3.33;2.10;;;11.40;99.90;;;;;;4930949;29;20231;-80
2021/03/22 10:44:27;;;;;;;3.43;2.43;;;11.50;99.90;;;;;;4936092;29;20599;-80
2021/03/22 10:47:16;;;;;;;7.03;2.60;;;11.60;99.90;;;;;;4938512;29;20214;-81
2021/03/22 10:50:12;;;;;;;3.13;2.30;;;11.90;99.90;;;;;;4934073;29;20258;-81
2021/03/22 10:53:06;;;;;;;3.33;2.13;;;12.40;99.90;;;;;;4936824;29;20614;-81
2021/03/22 10:55:51;;;;;;;5.00;2.30;;;13.00;99.90;;;;;;4937614;29;20221;-81
2021/03/22 10:58:37;;;;;;;3.67;1.80;;;13.50;99.90;;;;;;4939153;29;20258;-81
2021/03/22 11:01:22;;;;;;;2.13;1.70;;;13.90;99.90;;;;;;4936698;29;20230;-81
2021/03/22 11:04:14;;;;;;;4.33;2.50;;;14.20;99.90;;;;;;4939048;29;20728;-80
2021/03/22 11:06:59;;;;;;;3.40;2.20;;;14.40;99.90;;;;;;4932866;29;20239;-80
2021/03/22 11:09:54;;;;;;;4.17;2.20;;;14.50;99.90;;;;;;4938171;29;20235;-80
2021/03/22 11:12:44;;;;;;;2.17;1.97;;;14.50;99.90;;;;;;4928936;29;20287;-80
2021/03/22 11:15:32;;;;;;;8.17;2.50;;;14.40;99.90;;;;;;4936111;29;20211;-80
2021/03/22 11:18:19;;;;;;;4.10;2.23;;;14.20;99.90;;;;;;4938056;29;20214;-80
2021/03/22 11:21:04;;;;;;;3.83;2.20;;;14.10;99.90;;;;;;4937324;29;20279;-80
2021/03/22 11:23:53;;;;;;;2.10;2.00;;;13.90;99.90;;;;;;4935985;29;20215;-80
2021/03/22 11:26:37;;;;;;;2.53;1.87;;;13.70;99.90;;;;;;4933919;29;20274;-80
2021/03/22 11:29:24;;;;;;;2.27;2.00;;;13.60;99.90;;;;;;4934735;29;20237;-80
2021/03/22 11:32:19;;;;;;;3.43;1.90;;;13.40;99.90;;;;;;4927497;29;20232;-80
2021/03/22 11:35:21;;;;;;;3.57;1.83;;;13.20;99.90;;;;;;4932702;29;20384;-80
2021/03/22 11:38:15;;;;;;;2.63;1.80;;;13.10;99.90;;;;;;4936068;29;20264;-80
2021/03/22 11:41:00;;;;;;;2.83;1.73;;;13.00;99.90;;;;;;4943845;29;20307;-80
2021/03/22 11:43:45;;;;;;;2.97;1.60;;;12.90;99.90;;;;;;4937853;29;20215;-80
2021/03/22 11:46:31;;;;;;;3.43;1.80;;;12.80;99.90;;;;;;4940137;29;20212;-80
2021/03/22 11:49:39;;;;;;;3.47;1.50;;;12.80;99.90;;;;;;4938791;29;20248;-80
2021/03/22 11:52:26;;;;;;;2.17;1.17;;;13.00;99.90;;;;;;4926008;29;20252;-80
2021/03/22 11:55:32;;;;;;;2.93;1.20;;;12.80;99.90;;;;;;4938014;29;20211;-80
2021/03/22 11:58:37;;;;;;;3.00;2.70;;;12.80;99.90;;;;;;4928681;29;20215;-80
2021/03/22 12:01:25;;;;;;;3.20;2.00;;;12.90;99.90;;;;;;4926420;29;20227;-80
2021/03/22 12:04:17;;;;;;;3.73;1.70;;;12.90;99.90;;;;;;4924309;29;20327;-80
2021/03/22 12:07:05;;;;;;;2.70;1.10;;;12.90;99.90;;;;;;4922491;29;20239;-80
2021/03/22 12:09:50;;;;;;;1.43;1.00;;;12.90;99.90;;;;;;4939985;29;20235;-80
2021/03/22 12:12:34;;;;;;;7.07;1.23;;;12.90;99.90;;;;;;4937854;29;20214;-80
2021/03/22 12:15:20;;;;;;;3.03;1.40;;;13.00;99.90;;;;;;4935579;29;20207;-80
2021/03/22 12:18:07;;;;;;;3.30;1.27;;;13.00;99.90;;;;;;4932557;29;20223;-82
2021/03/22 12:20:53;;;;;;;2.43;1.23;;;13.00;99.90;;;;;;4936492;29;20322;-82
2021/03/22 12:23:39;;;;;;;2.90;1.63;;;13.00;99.90;;;;;;4929752;29;20203;-81
2021/03/22 12:26:24;;;;;;;2.87;1.07;;;13.00;99.90;;;;;;4925639;29;20230;-81
2021/03/22 12:29:08;;;;;;;4.03;1.60;;;13.00;99.90;;;;;;4939502;29;20238;-82
2021/03/22 12:31:54;;;;;;;3.57;1.57;;;13.00;99.90;;;;;;4931389;29;20278;-81
2021/03/22 12:34:38;;;;;;;7.10;2.13;;;13.00;99.90;;;;;;4927968;29;20211;-81
2021/03/22 12:37:27;;;;;;;2.87;1.57;;;13.00;99.90;;;;;;4937422;29;20274;-83
2021/03/22 12:40:14;;;;;;;4.83;1.20;;;13.10;99.90;;;;;;4942833;29;20251;-82
2021/03/22 12:43:00;;;;;;;4.33;1.43;;;13.10;99.90;;;;;;4926566;29;20206;-82
2021/03/22 12:45:45;;;;;;;3.50;1.67;;;13.10;99.90;;;;;;4951014;29;20210;-82
2021/03/22 12:48:31;;;;;;;2.80;1.43;;;13.10;99.90;;;;;;4930482;29;20207;-81
2021/03/22 12:51:15;;;;;;;1.93;1.13;;;13.10;99.90;;;;;;4930588;29;20263;-82
2021/03/22 12:54:01;;;;;;;2.87;1.33;;;13.10;99.90;;;;;;4930739;29;20344;-82
2021/03/22 12:56:46;;;;;;;2.60;1.60;;;13.10;99.90;;;;;;4937042;29;20247;-82
2021/03/22 12:59:34;;;;;;;3.03;1.87;;;13.00;99.90;;;;;;4934703;29;20206;-81
2021/03/22 13:02:23;;;;;;;4.50;1.70;;;13.00;99.90;;;;;;4940907;29;20203;-81
2021/03/22 13:05:17;;;;;;;2.53;1.63;;;13.00;99.90;;;;;;4940173;29;20207;-82
2021/03/22 13:08:04;;;;;;;8.43;5.50;;;12.90;99.90;;;;;;4939916;29;20219;-82
2021/03/22 13:10:51;;;;;;;2.50;1.80;;;12.80;99.90;;;;;;4940319;29;20231;-82
2021/03/22 13:13:36;;;;;;;5.33;2.00;;;12.90;99.90;;;;;;4937702;29;20210;-81
2021/03/22 13:16:22;;;;;;;3.17;2.00;;;12.90;99.90;;;;;;4941795;29;20238;-83
2021/03/22 13:19:06;;;;;;;3.23;2.10;;;13.00;99.90;;;;;;4927984;29;20223;-82
2021/03/22 13:21:51;;;;;;;2.63;1.90;;;13.10;99.90;;;;;;4925153;29;20735;-82
2021/03/22 13:24:36;;;;;;;4.07;1.90;;;13.10;99.90;;;;;;4925915;29;20207;-82
2021/03/22 13:27:23;;;;;;;3.37;2.20;;;13.30;99.90;;;;;;4937603;29;20214;-82
2021/03/22 13:30:12;;;;;;;2.13;1.77;;;13.40;99.90;;;;;;4934604;29;20223;-82
2021/03/22 13:32:56;;;;;;;3.17;1.97;;;13.50;99.90;;;;;;4928338;29;20229;-83
2021/03/22 13:35:42;;;;;;;2.93;2.00;;;13.50;99.90;;;;;;4937012;29;20214;-81
2021/03/22 13:38:29;;;;;;;3.70;1.97;;;13.60;99.90;;;;;;4931295;29;20288;-82
2021/03/22 13:41:23;;;;;;;4.87;2.17;;;13.60;99.90;;;;;;4935848;29;20259;-83
2021/03/22 13:44:10;;;;;;;3.63;1.97;;;13.70;99.90;;;;;;4933527;29;20207;-83
2021/03/22 13:46:55;;;;;;;2.10;1.90;;;13.80;99.90;;;;;;4938585;29;20214;-82
2021/03/22 13:49:40;;;;;;;2.50;2.30;;;13.80;99.90;;;;;;4934446;29;20315;-83
2021/03/22 13:52:28;;;;;;;2.20;2.00;;;14.00;99.90;;;;;;4934495;29;20214;-82
2021/03/22 13:55:18;;;;;;;2.03;1.90;;;14.00;99.90;;;;;;4926018;29;20698;-84
2021/03/22 13:58:03;;;;;;;3.47;2.30;;;14.10;99.90;;;;;;4925001;29;20251;-82
2021/03/22 14:00:50;;;;;;;3.13;2.33;;;14.30;99.90;;;;;;4937854;29;20241;-83
2021/03/22 14:03:35;;;;;;;3.63;2.40;;;14.40;99.90;;;;;;4937257;29;20544;-83
2021/03/22 14:06:19;;;;;;;3.00;2.53;;;14.50;99.90;;;;;;4932063;29;20202;-83
2021/03/22 14:09:07;;;;;;;6.30;2.27;;;14.60;99.90;;;;;;4935697;29;20207;-82
2021/03/22 14:11:54;;;;;;;3.90;2.03;;;14.80;99.90;;;;;;4932564;29;20223;-83
2021/03/22 14:14:39;;;;;;;3.20;2.13;;;14.80;99.90;;;;;;4936458;29;20635;-83
2021/03/22 14:17:24;;;;;;;2.63;2.10;;;14.90;99.90;;;;;;4933191;29;20260;-84
2021/03/22 14:20:11;;;;;;;2.97;1.93;;;15.00;99.90;;;;;;4936418;29;20747;-84
2021/03/22 14:22:56;;;;;;;3.10;1.80;;;15.00;99.90;;;;;;4933890;29;20207;-83
2021/03/22 14:25:41;;;;;;;4.57;1.97;;;15.00;99.90;;;;;;4934055;29;20203;-83
2021/03/22 14:28:26;;;;;;;2.40;2.00;;;14.90;99.90;;;;;;4931407;29;20290;-84
2021/03/22 14:31:12;;;;;;;4.13;2.30;;;14.80;99.90;;;;;;4930568;29;20242;-81
2021/03/22 14:34:15;;;;;;;3.23;2.00;;;14.80;99.90;;;;;;4934285;29;20210;-84
2021/03/22 14:37:00;;;;;;;2.90;1.83;;;14.70;99.90;;;;;;4929821;29;20211;-83
2021/03/22 14:39:45;;;;;;;3.63;2.20;;;14.60;99.90;;;;;;4929885;29;20254;-82
2021/03/22 14:42:30;;;;;;;3.00;2.10;;;14.60;99.90;;;;;;4931850;29;20250;-81
2021/03/22 14:45:19;;;;;;;2.70;1.73;;;14.50;99.90;;;;;;4929615;29;20210;-83